Newport, Minnesota
Current Conditions -  °F | °C
As of 11:50 PM on Thursday 30 Oct 2014 (Local Time) from KSGS Reporting Station
Clear Clear  
Wind Chill: 21°   Ceiling: Unl
Heat Index: 33°   Visibility: 10mi
Dew Point: 13°   Wind: 23mph
Humidity: 42%   Direction: 350°N
Pressure: 30.35"   Gusts: 28mph
Location:  44.87°N, 93°W
Report Text: KSGS 310450Z AUTO 35020G24KT 10SM CLR 01/M11 A3035 RMK AO2 T00081107
Loading
Personal Weather Stations






























Interactive Weather Map
Tropical Storm Tracking
New forecast layout! Learn more

10-Day Weather Forecast

Advertisements
Track Severe Weather on mobile